createdAt,value
2022-12-29T00:00:02.434Z,83.41
2022-12-29T00:02:39.608Z,83.00
2022-12-29T00:05:07.923Z,82.61
2022-12-29T00:07:34.688Z,82.32
2022-12-29T00:10:01.399Z,82.61
2022-12-29T00:12:48.044Z,82.78
2022-12-29T00:15:33.585Z,83.00
2022-12-29T00:18:00.984Z,82.84
2022-12-29T00:20:59.891Z,83.35
2022-12-29T00:23:44.895Z,83.02
2022-12-29T00:26:36.872Z,83.72
2022-12-29T00:29:22.633Z,83.50
2022-12-29T00:32:07.868Z,83.63
2022-12-29T00:34:53.445Z,83.84
2022-12-29T00:37:40.257Z,83.85
2022-12-29T00:40:26.468Z,83.73
2022-12-29T00:43:11.698Z,83.66
2022-12-29T00:45:42.618Z,83.32
2022-12-29T00:48:10.901Z,82.95
2022-12-29T00:50:37.832Z,82.30
2022-12-29T00:53:04.560Z,82.10
2022-12-29T00:55:31.275Z,81.30
2022-12-29T00:57:58.239Z,80.87
2022-12-29T01:00:25.007Z,80.42
2022-12-29T01:02:51.747Z,80.42
2022-12-29T01:05:18.443Z,79.87
2022-12-29T01:07:45.861Z,79.43
2022-12-29T01:10:12.578Z,79.20
2022-12-29T01:12:41.981Z,78.97
2022-12-29T01:15:14.703Z,78.54
2022-12-29T01:17:42.053Z,78.30
2022-12-29T01:20:09.666Z,77.84
2022-12-29T01:22:36.445Z,77.79
2022-12-29T01:25:04.904Z,77.85
2022-12-29T01:27:35.023Z,77.41
2022-12-29T01:30:01.841Z,77.13
2022-12-29T01:32:28.495Z,77.36
2022-12-29T01:34:55.249Z,77.94
2022-12-29T01:37:21.964Z,77.07
2022-12-29T01:39:48.668Z,77.13
2022-12-29T01:42:23.201Z,76.42
2022-12-29T01:44:59.162Z,76.71
2022-12-29T01:47:40.774Z,76.85
2022-12-29T01:50:16.925Z,76.50
2022-12-29T01:52:58.853Z,76.50
2022-12-29T01:55:30.122Z,76.13
2022-12-29T01:58:02.005Z,76.24
2022-12-29T02:00:30.750Z,75.77
2022-12-29T02:02:57.537Z,75.47
2022-12-29T02:05:33.196Z,75.66
2022-12-29T02:08:01.447Z,74.86
2022-12-29T02:10:32.000Z,75.28
2022-12-29T02:12:58.711Z,74.58
2022-12-29T02:15:58.000Z,74.63
2022-12-29T02:18:57.003Z,74.50
2022-12-29T02:21:41.749Z,74.19
2022-12-29T02:24:29.115Z,74.08
2022-12-29T02:27:17.748Z,73.67
2022-12-29T02:30:37.465Z,73.67
2022-12-29T02:33:50.313Z,73.44
2022-12-29T02:36:42.244Z,73.06
2022-12-29T02:39:42.338Z,73.84
2022-12-29T02:42:42.930Z,73.59
2022-12-29T02:45:54.174Z,73.54
2022-12-29T02:48:37.296Z,72.83
2022-12-29T02:51:11.106Z,73.32
2022-12-29T02:53:59.056Z,73.19
2022-12-29T02:56:26.861Z,73.14
2022-12-29T02:58:53.761Z,73.90
2022-12-29T03:01:32.842Z,74.24
2022-12-29T03:04:14.898Z,74.13
2022-12-29T03:07:24.884Z,74.40
2022-12-29T03:10:36.819Z,74.60
2022-12-29T03:13:32.573Z,74.32
2022-12-29T03:16:25.614Z,74.17
2022-12-29T03:19:02.296Z,73.60
2022-12-29T03:21:54.081Z,73.52
2022-12-29T03:24:27.733Z,73.77
2022-12-29T03:27:00.730Z,74.19
2022-12-29T03:29:36.887Z,74.02
2022-12-29T03:32:06.017Z,73.68
2022-12-29T03:34:35.342Z,73.19
2022-12-29T03:37:11.175Z,73.47
2022-12-29T03:39:38.623Z,73.47
2022-12-29T03:42:16.500Z,73.45
2022-12-29T03:44:46.901Z,73.58
2022-12-29T03:47:16.171Z,73.29
2022-12-29T03:49:45.463Z,73.63
2022-12-29T03:52:12.570Z,72.99
2022-12-29T03:54:43.543Z,73.59
2022-12-29T03:57:12.277Z,73.27
2022-12-29T03:59:49.868Z,73.59
2022-12-29T04:02:16.767Z,73.79
2022-12-29T04:04:45.333Z,73.77
2022-12-29T04:07:16.286Z,73.78
2022-12-29T04:09:43.338Z,73.78
2022-12-29T04:12:15.412Z,74.01
2022-12-29T04:14:42.268Z,73.97
2022-12-29T04:17:09.104Z,73.87
2022-12-29T04:19:35.871Z,74.33
2022-12-29T04:22:02.541Z,73.67
2022-12-29T04:24:30.458Z,72.97
2022-12-29T04:26:57.474Z,72.69
2022-12-29T04:29:46.527Z,72.98
2022-12-29T04:32:33.395Z,72.58
2022-12-29T04:35:00.106Z,72.18
2022-12-29T04:37:27.520Z,71.90
2022-12-29T04:39:54.729Z,72.07
2022-12-29T04:42:21.668Z,71.89
2022-12-29T04:44:49.519Z,71.70
2022-12-29T04:47:34.460Z,72.29
2022-12-29T04:50:22.572Z,71.07
2022-12-29T04:53:17.543Z,72.17
2022-12-29T04:55:53.075Z,71.65
2022-12-29T04:58:23.122Z,72.04
2022-12-29T05:00:52.818Z,71.52
2022-12-29T05:03:22.711Z,72.12
2022-12-29T05:05:49.886Z,71.41
2022-12-29T05:08:16.776Z,71.95
2022-12-29T05:10:46.647Z,71.71
2022-12-29T05:13:13.968Z,71.44
2022-12-29T05:15:42.395Z,71.04
2022-12-29T05:18:09.227Z,72.15
2022-12-29T05:20:35.918Z,71.87
2022-12-29T05:23:03.238Z,71.80
2022-12-29T05:25:30.105Z,72.10
2022-12-29T05:28:08.643Z,71.89
2022-12-29T05:30:42.966Z,71.54
2022-12-29T05:33:12.455Z,71.14
2022-12-29T05:35:40.049Z,71.43
2022-12-29T05:38:07.317Z,71.46
2022-12-29T05:40:34.375Z,71.79
2022-12-29T05:43:05.609Z,71.79
2022-12-29T05:45:53.645Z,72.32
2022-12-29T05:48:38.651Z,70.77
2022-12-29T05:51:14.811Z,71.00
2022-12-29T05:53:53.421Z,70.68
2022-12-29T05:56:20.184Z,71.07
2022-12-29T05:58:53.689Z,70.69
2022-12-29T06:01:22.125Z,70.62
2022-12-29T06:03:49.137Z,70.45
2022-12-29T06:06:18.868Z,70.61
2022-12-29T06:08:46.631Z,70.58
2022-12-29T06:11:14.463Z,70.46
2022-12-29T06:13:48.366Z,70.61
2022-12-29T06:16:16.703Z,71.29
2022-12-29T06:18:45.573Z,71.56
2022-12-29T06:21:13.071Z,70.77
2022-12-29T06:23:40.224Z,71.38
2022-12-29T06:26:06.892Z,72.14
2022-12-29T06:28:33.639Z,72.12
2022-12-29T06:31:03.057Z,71.77
2022-12-29T06:33:30.633Z,71.64
2022-12-29T06:35:57.705Z,71.95
2022-12-29T06:38:24.422Z,71.08
2022-12-29T06:40:51.164Z,71.47
2022-12-29T06:43:20.881Z,71.05
2022-12-29T06:45:56.252Z,71.09
2022-12-29T06:48:22.964Z,70.65
2022-12-29T06:50:49.699Z,70.75
2022-12-29T06:53:16.366Z,70.28
2022-12-29T06:55:43.372Z,69.86
2022-12-29T06:58:10.397Z,69.95
2022-12-29T07:00:37.064Z,70.13
2022-12-29T07:03:04.036Z,70.32
2022-12-29T07:05:32.555Z,70.29
2022-12-29T07:07:59.939Z,70.34
2022-12-29T07:10:27.204Z,70.90
2022-12-29T07:12:53.933Z,70.03
2022-12-29T07:15:20.709Z,70.22
2022-12-29T07:17:47.460Z,70.81
2022-12-29T07:20:14.097Z,71.13
2022-12-29T07:22:41.058Z,70.55
2022-12-29T07:25:08.518Z,70.80
2022-12-29T07:27:35.624Z,70.30
2022-12-29T07:30:02.312Z,70.55
2022-12-29T07:32:29.183Z,70.35
2022-12-29T07:34:55.899Z,70.55
2022-12-29T07:37:22.550Z,69.70
2022-12-29T07:39:49.215Z,69.61
2022-12-29T07:42:15.917Z,69.34
2022-12-29T07:44:44.574Z,69.01
2022-12-29T07:47:37.565Z,69.01
2022-12-29T07:50:05.864Z,69.01
2022-12-29T07:52:32.732Z,68.40
2022-12-29T07:54:59.887Z,68.85
2022-12-29T07:57:31.513Z,69.34
2022-12-29T07:59:59.529Z,68.83
2022-12-29T08:02:27.647Z,69.09
2022-12-29T08:04:54.738Z,69.20
2022-12-29T08:07:21.967Z,68.50
2022-12-29T08:09:48.653Z,69.17
2022-12-29T08:12:15.848Z,68.74
2022-12-29T08:14:42.513Z,69.19
2022-12-29T08:17:09.282Z,68.67
2022-12-29T08:19:35.965Z,69.02
2022-12-29T08:22:03.307Z,68.91
2022-12-29T08:24:30.019Z,68.68
2022-12-29T08:26:57.360Z,69.21
2022-12-29T08:29:24.217Z,69.58
2022-12-29T08:31:50.925Z,69.45
2022-12-29T08:34:17.595Z,69.98
2022-12-29T08:36:44.229Z,70.84
2022-12-29T08:39:10.932Z,71.98
2022-12-29T08:41:40.879Z,72.47
2022-12-29T08:44:07.515Z,73.07
2022-12-29T08:46:34.167Z,72.72
2022-12-29T08:49:08.404Z,73.38
2022-12-29T08:51:35.205Z,73.33
2022-12-29T08:54:01.843Z,73.58
2022-12-29T08:56:29.098Z,73.60
2022-12-29T08:58:57.844Z,72.87
2022-12-29T09:01:25.665Z,72.85
2022-12-29T09:04:14.375Z,73.26
2022-12-29T09:06:42.381Z,73.09
2022-12-29T09:09:09.476Z,72.68
2022-12-29T09:11:36.316Z,72.09
2022-12-29T09:14:03.288Z,72.31
2022-12-29T09:16:30.113Z,71.70
2022-12-29T09:18:56.812Z,71.53
2022-12-29T09:21:23.540Z,71.07
2022-12-29T09:23:50.234Z,70.15
2022-12-29T09:26:16.945Z,69.60
2022-12-29T09:28:45.220Z,69.77
2022-12-29T09:31:12.204Z,69.02
2022-12-29T09:33:39.085Z,68.89
2022-12-29T09:36:06.224Z,68.25
2022-12-29T09:38:32.965Z,68.30
2022-12-29T09:41:15.458Z,68.74
2022-12-29T09:44:07.999Z,68.29
2022-12-29T09:47:01.804Z,67.36
2022-12-29T09:50:26.572Z,67.29
2022-12-29T09:53:06.065Z,65.98
2022-12-29T09:56:01.668Z,65.89
2022-12-29T09:58:46.494Z,64.90
2022-12-29T10:01:38.354Z,64.35
2022-12-29T10:04:06.259Z,63.51
2022-12-29T10:10:39.261Z,62.69
2022-12-29T10:13:29.974Z,61.98
2022-12-29T10:16:24.022Z,62.11
2022-12-29T10:19:08.924Z,62.26
2022-12-29T10:21:59.911Z,61.69
2022-12-29T10:24:30.433Z,62.03
2022-12-29T10:26:59.813Z,62.38
2022-12-29T10:29:41.487Z,62.39
2022-12-29T10:32:34.006Z,62.65
2022-12-29T10:35:15.148Z,62.39
2022-12-29T10:38:12.478Z,62.27
2022-12-29T10:40:52.312Z,61.79
2022-12-29T10:43:27.056Z,61.86
2022-12-29T10:46:06.345Z,62.20
2022-12-29T10:48:35.836Z,62.08
2022-12-29T10:51:06.872Z,62.59
2022-12-29T10:53:42.843Z,62.07
2022-12-29T10:56:31.026Z,62.11
2022-12-29T10:59:03.197Z,61.91
2022-12-29T11:01:41.141Z,62.55
2022-12-29T11:04:36.096Z,61.93
2022-12-29T11:07:04.701Z,61.87
2022-12-29T11:09:42.427Z,61.97
2022-12-29T11:12:29.769Z,62.32
2022-12-29T11:15:08.738Z,61.77
2022-12-29T11:17:51.492Z,62.07
2022-12-29T11:20:36.064Z,62.15
2022-12-29T11:23:05.670Z,62.09
2022-12-29T11:25:33.129Z,61.65
2022-12-29T11:28:16.428Z,61.66
2022-12-29T11:30:44.059Z,62.43
2022-12-29T11:33:11.124Z,62.81
2022-12-29T11:35:43.494Z,61.83
2022-12-29T11:38:27.273Z,62.03
2022-12-29T11:40:54.257Z,62.24
2022-12-29T11:43:42.073Z,62.15
2022-12-29T11:46:26.829Z,62.43
2022-12-29T11:48:53.858Z,62.15
2022-12-29T11:51:28.345Z,62.19
2022-12-29T11:53:59.712Z,61.93
2022-12-29T11:56:41.290Z,61.95
2022-12-29T11:59:30.731Z,62.81
2022-12-29T12:01:59.885Z,62.64
2022-12-29T12:04:32.225Z,61.85
2022-12-29T12:07:40.175Z,62.28
2022-12-29T12:10:14.055Z,62.36
2022-12-29T12:12:52.826Z,61.87
2022-12-29T12:16:08.888Z,61.73
2022-12-29T12:18:49.232Z,62.01
2022-12-29T12:21:27.401Z,61.91
2022-12-29T12:24:09.151Z,61.77
2022-12-29T12:26:39.243Z,62.34
2022-12-29T12:29:33.696Z,62.14
2022-12-29T12:32:28.412Z,62.27
2022-12-29T12:34:55.102Z,62.17
2022-12-29T12:52:07.360Z,61.63
2022-12-29T12:55:03.109Z,61.77
2022-12-29T12:58:10.646Z,61.95
2022-12-29T13:00:53.129Z,62.71
2022-12-29T13:03:50.861Z,62.18
2022-12-29T13:06:43.744Z,62.88
2022-12-29T13:09:32.326Z,63.71
2022-12-29T13:12:41.360Z,64.57
2022-12-29T13:15:31.025Z,63.67
2022-12-29T13:18:07.411Z,63.40
2022-12-29T13:20:56.748Z,63.27
2022-12-29T13:23:32.338Z,63.25
2022-12-29T13:26:16.272Z,63.55
2022-12-29T13:29:20.062Z,63.21
2022-12-29T13:32:31.117Z,63.67
2022-12-29T13:35:33.347Z,63.14
2022-12-29T13:38:21.801Z,62.83
2022-12-29T13:40:56.317Z,62.65
2022-12-29T13:43:24.705Z,63.29
2022-12-29T13:46:02.466Z,62.30
2022-12-29T13:48:54.979Z,62.23
2022-12-29T13:51:27.719Z,62.04
2022-12-29T13:54:13.093Z,62.40
2022-12-29T13:57:05.037Z,62.02
2022-12-29T13:59:58.000Z,62.15
2022-12-29T14:02:34.471Z,62.78
2022-12-29T14:05:07.014Z,62.36
2022-12-29T14:07:39.319Z,62.61
2022-12-29T14:10:07.368Z,62.59
2022-12-29T14:12:39.148Z,62.61
2022-12-29T14:15:11.908Z,62.91
2022-12-29T14:17:45.289Z,62.96
2022-12-29T14:20:24.090Z,63.18
2022-12-29T14:23:17.510Z,62.62
2022-12-29T14:26:05.979Z,62.90
2022-12-29T14:28:45.161Z,63.05
2022-12-29T14:31:14.984Z,63.40
2022-12-29T14:34:11.630Z,63.28
2022-12-29T14:36:41.055Z,63.70
2022-12-29T14:39:36.746Z,62.59
2022-12-29T14:42:18.476Z,62.56
2022-12-29T14:45:01.985Z,63.20
2022-12-29T14:47:37.292Z,63.25
2022-12-29T14:50:26.196Z,63.29
2022-12-29T14:53:04.361Z,63.40
2022-12-29T14:55:48.362Z,63.67
2022-12-29T14:58:32.709Z,63.96
2022-12-29T15:01:00.810Z,64.10
2022-12-29T15:03:33.743Z,64.13
2022-12-29T15:06:14.223Z,63.98
2022-12-29T15:08:51.155Z,64.10
2022-12-29T15:11:26.100Z,64.16
2022-12-29T15:13:53.449Z,63.33
2022-12-29T15:16:36.744Z,63.48
2022-12-29T15:19:06.063Z,63.61
2022-12-29T15:21:37.470Z,64.24
2022-12-29T15:24:05.381Z,64.40
2022-12-29T15:26:40.714Z,64.54
2022-12-29T15:29:46.619Z,64.20
2022-12-29T15:32:16.329Z,63.99
2022-12-29T15:34:50.574Z,64.03
2022-12-29T15:37:27.459Z,64.46
2022-12-29T15:39:56.886Z,64.08
2022-12-29T15:42:51.544Z,64.47
2022-12-29T15:45:18.350Z,64.48
2022-12-29T15:47:49.657Z,64.51
2022-12-29T15:50:32.310Z,64.55
2022-12-29T15:53:00.623Z,64.57
2022-12-29T15:55:40.249Z,64.15
2022-12-29T15:58:24.294Z,64.54
2022-12-29T16:00:59.138Z,64.39
2022-12-29T16:03:28.161Z,64.41
2022-12-29T16:06:07.810Z,64.41
2022-12-29T16:08:41.109Z,63.83
2022-12-29T16:11:24.180Z,63.85
2022-12-29T16:13:53.840Z,64.10
2022-12-29T16:16:38.962Z,64.02
2022-12-29T16:19:15.817Z,64.13
2022-12-29T16:21:44.154Z,64.13
2022-12-29T16:24:27.608Z,64.37
2022-12-29T16:27:07.686Z,64.23
2022-12-29T16:29:35.759Z,64.64
2022-12-29T16:32:04.216Z,64.25
2022-12-29T16:34:38.692Z,64.76
2022-12-29T16:37:37.664Z,64.20
2022-12-29T16:40:23.119Z,64.70
2022-12-29T16:42:52.425Z,64.99
2022-12-29T16:45:21.496Z,64.92
2022-12-29T16:47:54.985Z,64.99
2022-12-29T16:50:28.202Z,65.20
2022-12-29T16:52:55.869Z,64.86
2022-12-29T16:55:23.095Z,64.77
2022-12-29T16:57:54.496Z,64.82
2022-12-29T17:00:25.713Z,65.41
2022-12-29T17:02:57.523Z,65.33
2022-12-29T17:05:24.601Z,67.71
2022-12-29T17:07:55.845Z,70.31
2022-12-29T17:10:42.551Z,71.58
2022-12-29T17:13:09.579Z,70.94
2022-12-29T17:15:36.551Z,71.82
2022-12-29T17:18:06.300Z,71.86
2022-12-29T17:20:35.405Z,70.88
2022-12-29T17:23:02.603Z,70.62
2022-12-29T17:25:34.411Z,70.42
2022-12-29T17:28:04.416Z,70.13
2022-12-29T17:30:34.685Z,70.19
2022-12-29T17:33:09.638Z,70.94
2022-12-29T17:35:37.647Z,71.70
2022-12-29T17:38:23.991Z,72.39
2022-12-29T17:40:50.926Z,71.80
2022-12-29T17:43:18.333Z,71.89
2022-12-29T17:45:51.034Z,72.76
2022-12-29T17:48:18.917Z,72.18
2022-12-29T17:50:49.400Z,72.17
2022-12-29T17:53:21.893Z,72.30
2022-12-29T17:55:48.840Z,73.03
2022-12-29T17:58:21.344Z,73.14
2022-12-29T18:00:51.526Z,72.81
2022-12-29T18:03:23.640Z,72.86
2022-12-29T18:05:50.987Z,72.92
2022-12-29T18:08:17.775Z,73.45
2022-12-29T18:10:44.921Z,73.59
2022-12-29T18:13:22.299Z,73.84
2022-12-29T18:15:49.219Z,73.72
2022-12-29T18:18:20.340Z,74.03
2022-12-29T18:20:50.068Z,73.74
2022-12-29T18:23:32.153Z,73.26
2022-12-29T18:26:08.082Z,73.58
2022-12-29T18:28:34.761Z,73.87
2022-12-29T18:31:02.038Z,73.52
2022-12-29T18:33:29.933Z,73.64
2022-12-29T18:36:03.668Z,74.01
2022-12-29T18:38:31.006Z,73.36
2022-12-29T18:40:59.378Z,73.03
2022-12-29T18:43:26.432Z,73.03
2022-12-29T18:45:53.244Z,73.18
2022-12-29T18:48:20.767Z,73.14
2022-12-29T18:50:53.170Z,73.14
2022-12-29T18:53:23.760Z,72.79
2022-12-29T18:55:52.231Z,73.16
2022-12-29T18:58:19.528Z,73.47
2022-12-29T19:00:47.294Z,73.04
2022-12-29T19:03:17.599Z,73.05
2022-12-29T19:05:47.185Z,72.90
2022-12-29T19:08:14.183Z,72.86
2022-12-29T19:10:42.167Z,73.13
2022-12-29T19:13:17.553Z,72.35
2022-12-29T19:15:46.506Z,72.29
2022-12-29T19:21:11.727Z,72.29
2022-12-29T19:23:38.466Z,72.41
2022-12-29T19:26:05.377Z,72.78
2022-12-29T19:28:32.120Z,73.27
2022-12-29T19:31:02.148Z,73.32
2022-12-29T19:33:29.529Z,73.40
2022-12-29T19:36:01.752Z,73.41
2022-12-29T19:38:28.858Z,73.43
2022-12-29T19:40:55.624Z,73.45
2022-12-29T19:43:22.326Z,73.25
2022-12-29T19:45:49.061Z,73.86
2022-12-29T19:48:19.446Z,73.48
2022-12-29T19:50:46.360Z,73.85
2022-12-29T19:53:14.615Z,73.74
2022-12-29T19:55:45.976Z,73.85
2022-12-29T19:58:13.597Z,73.80
2022-12-29T20:00:42.361Z,73.82
2022-12-29T20:03:09.491Z,73.94
2022-12-29T20:05:37.145Z,74.24
2022-12-29T20:08:03.915Z,73.88
2022-12-29T20:10:30.954Z,73.83
2022-12-29T20:12:57.838Z,73.80
2022-12-29T20:15:24.575Z,74.16
2022-12-29T20:20:37.899Z,73.66
2022-12-29T20:23:04.578Z,74.05
2022-12-29T20:25:47.483Z,73.72
2022-12-29T20:28:15.934Z,73.76
2022-12-29T20:30:43.279Z,73.77
2022-12-29T20:33:10.349Z,74.19
2022-12-29T20:35:37.727Z,74.21
2022-12-29T20:38:05.295Z,73.94
2022-12-29T20:40:32.106Z,74.25
2022-12-29T20:42:58.795Z,74.43
2022-12-29T20:45:25.779Z,74.25
2022-12-29T20:47:52.493Z,73.47
2022-12-29T20:50:19.233Z,74.34
2022-12-29T20:52:47.058Z,74.10
2022-12-29T20:55:14.449Z,74.43
2022-12-29T21:00:32.769Z,74.37
2022-12-29T21:03:00.868Z,74.01
2022-12-29T21:05:28.926Z,74.00
2022-12-29T21:07:55.959Z,73.82
2022-12-29T21:10:23.260Z,73.89
2022-12-29T21:12:50.079Z,73.60
2022-12-29T21:15:16.916Z,73.82
2022-12-29T21:17:44.713Z,73.79
2022-12-29T21:20:20.539Z,73.52
2022-12-29T21:22:48.095Z,73.70
2022-12-29T21:25:15.149Z,73.39
2022-12-29T21:27:45.591Z,73.39
2022-12-29T21:30:13.268Z,73.09
2022-12-29T21:32:41.348Z,73.10
2022-12-29T21:35:09.898Z,73.11
2022-12-29T21:37:36.941Z,72.98
2022-12-29T21:40:04.592Z,72.90
2022-12-29T21:42:31.645Z,72.57
2022-12-29T21:45:20.835Z,72.35
2022-12-29T21:48:07.488Z,72.06
2022-12-29T21:50:59.226Z,71.89
2022-12-29T21:53:37.706Z,71.82
2022-12-29T21:56:11.670Z,71.71
2022-12-29T21:58:59.414Z,71.64
2022-12-29T22:01:46.808Z,71.76
2022-12-29T22:04:35.295Z,71.83
2022-12-29T22:07:22.355Z,71.73
2022-12-29T22:10:07.942Z,71.99
2022-12-29T22:12:54.379Z,71.87
2022-12-29T22:15:21.475Z,72.04
2022-12-29T22:17:50.969Z,72.08
2022-12-29T22:20:19.716Z,72.42
2022-12-29T22:22:46.698Z,72.02
2022-12-29T22:25:14.209Z,72.22
2022-12-29T22:27:40.995Z,72.47
2022-12-29T22:30:08.777Z,72.28
2022-12-29T22:32:35.732Z,72.37
2022-12-29T22:35:07.739Z,72.74
2022-12-29T22:37:37.356Z,72.70
2022-12-29T22:40:06.662Z,72.75
2022-12-29T22:42:33.353Z,73.20
2022-12-29T22:45:00.030Z,73.07
2022-12-29T22:47:26.705Z,72.83
2022-12-29T22:49:53.387Z,72.97
2022-12-29T22:52:20.176Z,73.08
2022-12-29T22:54:46.816Z,72.47
2022-12-29T22:57:13.615Z,72.48
2022-12-29T22:59:40.312Z,72.72
2022-12-29T23:02:07.176Z,72.39
2022-12-29T23:05:02.296Z,73.00
2022-12-29T23:07:21.379Z,73.00
2022-12-29T23:09:48.050Z,73.03
2022-12-29T23:12:14.696Z,72.63
2022-12-29T23:14:41.380Z,73.12
2022-12-29T23:17:08.102Z,72.99
2022-12-29T23:19:34.815Z,73.46
2022-12-29T23:22:01.597Z,73.28
2022-12-29T23:24:28.357Z,73.75
2022-12-29T23:26:55.060Z,73.52
2022-12-29T23:29:21.790Z,73.68
2022-12-29T23:31:49.014Z,73.57
2022-12-29T23:34:17.020Z,73.85
2022-12-29T23:36:43.914Z,74.13
2022-12-29T23:39:23.189Z,73.68
2022-12-29T23:41:50.384Z,73.97
2022-12-29T23:44:17.112Z,73.94
2022-12-29T23:46:44.054Z,74.16
2022-12-29T23:49:11.078Z,73.94
2022-12-29T23:51:37.844Z,74.05
2022-12-29T23:54:05.212Z,74.14
2022-12-29T23:56:32.386Z,74.23
2022-12-29T23:58:59.071Z,74.33
